Time;durP1;ratioP1;P1;durP2;ratioP2;P2;SDS_P1;SDS_P2;PMS_P1;PMS_P2;Temp;Humidity;BMP_temperature;BMP_pressure;BME280_temperature;BME280_humidity;BME280_pressure;Samples;Min_cycle;Max_cycle;Signal;HPM_P1;HPM_P2
2023/10/27 00:00:13;;;;;;;1999.90;999.90;;;;;;;10.79;82.97;95534.16;5135387;28;20047;-64
2023/10/27 00:02:40;;;;;;;1999.90;999.90;;;;;;;10.71;82.96;95529.31;5135542;28;20099;-64
2023/10/27 00:05:08;;;;;;;1999.90;999.90;;;;;;;10.71;83.15;95521.47;5135404;28;20054;-63
2023/10/27 00:07:36;;;;;;;1999.90;999.90;;;;;;;10.72;83.00;95511.88;5135293;28;20555;-64
2023/10/27 00:10:04;;;;;;;1999.90;999.90;;;;;;;10.69;83.05;95517.28;5135488;28;20044;-63
2023/10/27 00:12:32;;;;;;;1999.90;999.90;;;;;;;10.66;83.83;95515.69;5135239;28;20154;-64
2023/10/27 00:14:59;;;;;;;1999.90;999.90;;;;;;;10.68;83.66;95523.41;5135264;28;20075;-63
2023/10/27 00:17:26;;;;;;;1999.90;999.90;;;;;;;10.70;83.23;95534.63;5135163;28;20039;-63
2023/10/27 00:19:53;;;;;;;1999.90;999.90;;;;;;;10.71;82.93;95533.69;5134998;28;20492;-63
2023/10/27 00:22:20;;;;;;;1999.90;999.90;;;;;;;10.77;82.64;95538.59;5134936;28;20447;-64
2023/10/27 00:24:49;;;;;;;1999.90;999.90;;;;;;;10.70;82.59;95532.03;5135117;28;20054;-63
2023/10/27 00:27:16;;;;;;;1999.90;999.90;;;;;;;10.70;82.71;95530.25;5135022;28;20083;-64
2023/10/27 00:29:43;;;;;;;1999.90;999.90;;;;;;;10.74;83.63;95528.31;5134834;28;20058;-63
2023/10/27 00:32:10;;;;;;;1999.90;999.90;;;;;;;10.78;83.98;95518.53;5134718;28;20089;-63
2023/10/27 00:34:37;;;;;;;1999.90;999.90;;;;;;;10.74;83.78;95521.31;5134786;28;20503;-63
2023/10/27 00:37:05;;;;;;;1999.90;999.90;;;;;;;10.73;83.70;95517.03;5091486;27;1222132;-64
2023/10/27 00:39:32;;;;;;;1999.90;999.90;;;;;;;10.72;84.00;95512.69;5135863;27;20051;-63
2023/10/27 00:42:01;;;;;;;1999.90;999.90;;;;;;;10.77;83.42;95514.25;5135905;27;20047;-63
2023/10/27 00:44:28;;;;;;;1999.90;999.90;;;;;;;10.71;83.75;95507.53;5135796;27;20048;-63
2023/10/27 00:46:57;;;;;;;1999.90;999.90;;;;;;;10.59;84.31;95491.63;5135620;27;20047;-63
2023/10/27 00:49:24;;;;;;;1999.90;999.90;;;;;;;10.51;85.67;95485.97;5135585;27;20434;-63
2023/10/27 00:51:52;;;;;;;1999.90;999.90;;;;;;;10.49;86.42;95483.44;5135367;27;20116;-63
2023/10/27 00:54:20;;;;;;;1999.90;999.90;;;;;;;10.50;87.78;95481.66;5135511;27;20051;-64
2023/10/27 00:56:48;;;;;;;1999.90;999.90;;;;;;;10.55;87.93;95481.41;5135501;27;20084;-63
2023/10/27 00:59:18;;;;;;;1999.90;999.90;;;;;;;10.57;86.56;95479.56;5135395;27;20082;-64
2023/10/27 01:01:45;;;;;;;1999.90;999.90;;;;;;;10.57;87.19;95479.56;5134852;27;20047;-63
2023/10/27 01:04:12;;;;;;;1999.90;999.90;;;;;;;10.53;88.09;95481.50;5135064;27;20047;-64
2023/10/27 01:06:39;;;;;;;1999.90;999.90;;;;;;;10.48;89.79;95484.34;5135417;27;20047;-63
2023/10/27 01:09:07;;;;;;;1999.90;999.90;;;;;;;10.56;90.04;95491.78;5135197;27;20480;-64
2023/10/27 01:11:39;;;;;;;1999.90;999.90;;;;;;;10.61;89.29;95507.22;5135065;27;20089;-62
2023/10/27 01:14:06;;;;;;;1999.90;999.90;;;;;;;10.66;88.48;95507.84;5135230;27;20104;-64
2023/10/27 01:16:35;;;;;;;1999.90;999.90;;;;;;;10.63;87.30;95496.69;5135065;27;20055;-63
2023/10/27 01:19:02;;;;;;;1999.90;999.90;;;;;;;10.54;87.26;95496.25;5134895;27;20123;-64
2023/10/27 01:21:29;;;;;;;1999.90;999.90;;;;;;;10.57;86.85;95501.31;5135041;27;20054;-64
2023/10/27 01:23:58;;;;;;;1999.90;999.90;;;;;;;10.56;86.23;95501.38;5134902;27;20038;-64
2023/10/27 01:26:25;;;;;;;1999.90;999.90;;;;;;;10.60;85.63;95511.59;5134996;27;20092;-62
2023/10/27 01:28:52;;;;;;;1999.90;999.90;;;;;;;10.61;85.08;95507.22;5134889;27;20086;-62
2023/10/27 01:31:19;;;;;;;1999.90;999.90;;;;;;;10.61;85.12;95496.75;5134856;27;20075;-63
2023/10/27 01:33:46;;;;;;;1999.90;999.90;;;;;;;10.61;85.09;95502.00;5134640;27;20043;-63
2023/10/27 01:36:13;;;;;;;1999.90;999.90;;;;;;;10.60;85.07;95502.94;5134710;27;20055;-63
2023/10/27 01:38:40;;;;;;;1999.90;999.90;;;;;;;10.56;85.53;95491.78;5134703;27;20424;-64
2023/10/27 01:41:08;;;;;;;1999.90;999.90;;;;;;;10.52;85.84;95487.66;5134542;27;20047;-63
2023/10/27 01:43:35;;;;;;;1999.90;999.90;;;;;;;10.54;86.31;95485.78;5134718;27;20635;-63
2023/10/27 01:46:02;;;;;;;1999.90;999.90;;;;;;;10.53;87.25;95488.50;5134540;27;20053;-63
2023/10/27 01:48:29;;;;;;;1999.90;999.90;;;;;;;10.55;87.29;95495.34;5134486;27;20546;-63
2023/10/27 01:50:57;;;;;;;1999.90;999.90;;;;;;;10.58;86.69;95505.63;5134335;27;20096;-62
2023/10/27 01:53:23;;;;;;;1999.90;999.90;;;;;;;10.63;86.45;95502.75;5134402;27;20138;-63
2023/10/27 01:55:50;;;;;;;1999.90;999.90;;;;;;;10.68;86.46;95513.81;5134489;27;20043;-62
2023/10/27 01:58:19;;;;;;;1999.90;999.90;;;;;;;10.69;86.86;95506.81;5134277;27;20051;-63
2023/10/27 02:00:46;;;;;;;1999.90;999.90;;;;;;;10.71;87.95;95507.53;5134325;27;20047;-63
2023/10/27 02:03:13;;;;;;;1999.90;999.90;;;;;;;10.72;88.57;95510.09;5134331;27;20134;-62
2023/10/27 02:05:44;;;;;;;1999.90;999.90;;;;;;;10.79;88.65;95513.22;5134322;27;20046;-63
2023/10/27 02:08:13;;;;;;;1999.90;999.90;;;;;;;10.84;88.28;95521.63;5134164;27;20047;-62
2023/10/27 02:10:41;;;;;;;1999.90;999.90;;;;;;;10.83;88.03;95516.50;5134312;27;20049;-64
2023/10/27 02:13:08;;;;;;;1999.90;999.90;;;;;;;10.84;88.06;95511.16;5133898;27;20100;-63
2023/10/27 02:15:36;;;;;;;1999.90;999.90;;;;;;;10.92;88.03;95515.13;5134091;27;20092;-64
2023/10/27 02:18:03;;;;;;;1999.90;999.90;;;;;;;10.93;87.95;95522.91;5134267;27;20085;-64
2023/10/27 02:20:31;;;;;;;1999.90;999.90;;;;;;;10.95;87.77;95504.50;5134041;27;20039;-64
2023/10/27 02:22:58;;;;;;;1999.90;999.90;;;;;;;10.96;88.33;95509.66;5134011;27;20044;-63
2023/10/27 02:25:25;;;;;;;1999.90;999.90;;;;;;;10.98;88.64;95522.66;5134073;27;20138;-63
2023/10/27 02:27:52;;;;;;;1999.90;999.90;;;;;;;11.01;88.50;95519.84;5133956;28;20055;-63
2023/10/27 02:30:19;;;;;;;1999.90;999.90;;;;;;;10.93;88.99;95501.13;5134026;28;20138;-63
2023/10/27 02:32:47;;;;;;;1999.90;999.90;;;;;;;10.83;89.41;95495.56;5134039;28;20062;-62
2023/10/27 02:35:15;;;;;;;1999.90;999.90;;;;;;;11.03;89.09;95522.38;5133906;28;20477;-64
2023/10/27 02:37:42;;;;;;;1999.90;999.90;;;;;;;11.04;88.29;95517.06;5133715;28;20088;-64
2023/10/27 02:40:09;;;;;;;1999.90;999.90;;;;;;;11.06;88.65;95519.59;5133943;28;20067;-64
2023/10/27 02:42:39;;;;;;;1999.90;999.90;;;;;;;11.04;89.04;95514.44;5133802;28;20507;-64
2023/10/27 02:45:08;;;;;;;1999.90;999.90;;;;;;;11.11;91.04;95528.06;5133925;28;20065;-63
2023/10/27 02:47:35;;;;;;;1999.90;999.90;;;;;;;11.11;90.95;95531.50;5133828;28;20130;-63
2023/10/27 02:50:04;;;;;;;1999.90;999.90;;;;;;;11.11;90.68;95525.44;5133644;28;20411;-63
2023/10/27 02:52:31;;;;;;;1999.90;999.90;;;;;;;11.15;90.36;95532.19;5133736;28;20051;-64
2023/10/27 02:54:59;;;;;;;1999.90;999.90;;;;;;;11.20;89.56;95529.31;5133722;28;20051;-62
2023/10/27 02:57:26;;;;;;;1999.90;999.90;;;;;;;11.20;89.14;95524.88;5125259;28;20050;-64
2023/10/27 02:59:53;;;;;;;1999.90;999.90;;;;;;;11.22;88.86;95524.81;5133612;28;20480;-63
2023/10/27 03:02:20;;;;;;;1999.90;999.90;;;;;;;11.24;88.20;95521.19;5133746;28;20572;-64
2023/10/27 03:04:47;;;;;;;1999.90;999.90;;;;;;;11.21;87.95;95512.66;5133734;28;20128;-64
2023/10/27 03:07:16;;;;;;;1999.90;999.90;;;;;;;11.19;88.71;95507.50;5133607;28;20043;-64
2023/10/27 03:09:43;;;;;;;1999.90;999.90;;;;;;;11.21;89.30;95513.50;5133581;28;20051;-63
2023/10/27 03:12:10;;;;;;;1999.90;999.90;;;;;;;11.21;89.62;95508.28;5133493;28;20049;-63
2023/10/27 03:14:38;;;;;;;1999.90;999.90;;;;;;;11.27;89.50;95516.69;5133639;28;20043;-64
2023/10/27 03:17:05;;;;;;;1999.90;999.90;;;;;;;11.29;89.10;95507.81;5133501;28;20053;-63
2023/10/27 03:19:33;;;;;;;1999.90;999.90;;;;;;;11.31;88.99;95508.59;5133416;28;20075;-63
2023/10/27 03:22:00;;;;;;;1999.90;999.90;;;;;;;11.33;88.50;95511.97;5133375;28;20058;-63
2023/10/27 03:24:29;;;;;;;1999.90;999.90;;;;;;;11.37;88.30;95507.38;5133435;28;20179;-63
2023/10/27 03:26:56;;;;;;;1999.90;999.90;;;;;;;11.40;88.59;95499.34;5136488;27;20078;-63
2023/10/27 03:29:23;;;;;;;1999.90;999.90;;;;;;;11.40;88.77;95499.34;5137370;27;20049;-63
2023/10/27 03:31:50;;;;;;;1999.90;999.90;;;;;;;11.46;88.46;95496.38;5137031;27;20051;-63
2023/10/27 03:34:17;;;;;;;1999.90;999.90;;;;;;;11.47;87.76;95484.97;5137239;27;20137;-64
2023/10/27 03:36:45;;;;;;;1999.90;999.90;;;;;;;11.48;87.78;95475.34;5136710;27;20047;-65
2023/10/27 03:39:12;;;;;;;1999.90;999.90;;;;;;;11.49;88.13;95475.25;5137050;27;20043;-62
2023/10/27 03:41:40;;;;;;;1999.90;999.90;;;;;;;11.53;88.13;95464.59;5136893;27;20413;-63
2023/10/27 03:44:08;;;;;;;1999.90;999.90;;;;;;;11.56;87.97;95480.13;5136914;27;20055;-62
2023/10/27 03:46:35;;;;;;;1999.90;999.90;;;;;;;11.59;87.79;95483.41;5136764;27;20698;-64
2023/10/27 03:49:02;;;;;;;1999.90;999.90;;;;;;;11.62;87.43;95479.78;5136798;27;20039;-64
2023/10/27 03:51:29;;;;;;;1999.90;999.90;;;;;;;11.63;87.29;95476.22;5136812;27;20043;-63
2023/10/27 03:53:56;;;;;;;1999.90;999.90;;;;;;;11.63;87.77;95482.28;5136688;27;20050;-63
2023/10/27 03:56:23;;;;;;;1999.90;999.90;;;;;;;11.65;87.76;95484.81;5136683;27;20096;-63
2023/10/27 03:58:51;;;;;;;1999.90;999.90;;;;;;;11.67;87.95;95477.72;5136569;27;20061;-64
2023/10/27 04:01:18;;;;;;;1999.90;999.90;;;;;;;11.70;87.66;95482.78;5136628;27;20047;-62
2023/10/27 04:03:45;;;;;;;1999.90;999.90;;;;;;;11.73;88.12;95490.44;5136520;27;20077;-62
2023/10/27 04:06:13;;;;;;;1999.90;999.90;;;;;;;11.76;88.08;95492.03;5136541;27;20047;-63
2023/10/27 04:08:40;;;;;;;1999.90;999.90;;;;;;;11.79;87.63;95496.25;5136626;27;20043;-63
2023/10/27 04:11:07;;;;;;;1999.90;999.90;;;;;;;11.75;87.54;95488.56;5136410;27;20043;-63
2023/10/27 04:13:34;;;;;;;1999.90;999.90;;;;;;;11.77;87.59;95498.13;5136266;27;20473;-64
2023/10/27 04:16:03;;;;;;;1999.90;999.90;;;;;;;11.76;87.80;95497.28;5136407;27;20069;-63
2023/10/27 04:18:30;;;;;;;1999.90;999.90;;;;;;;11.77;87.61;95487.66;5136412;27;20054;-64
2023/10/27 04:20:57;;;;;;;1999.90;999.90;;;;;;;11.71;87.91;95484.44;5136194;27;20557;-62
2023/10/27 04:23:24;;;;;;;1999.90;999.90;;;;;;;11.68;88.21;95478.56;5136190;27;20059;-64
2023/10/27 04:25:52;;;;;;;1999.90;999.90;;;;;;;11.73;88.05;95476.50;5136090;27;20092;-64
2023/10/27 04:28:19;;;;;;;1999.90;999.90;;;;;;;11.73;88.32;95472.13;5136149;27;20043;-64
2023/10/27 04:30:46;;;;;;;1999.90;999.90;;;;;;;11.71;88.30;95478.38;5136027;27;20051;-64
2023/10/27 04:33:15;;;;;;;1999.90;999.90;;;;;;;11.68;88.23;95474.16;5135695;27;20078;-63
2023/10/27 04:35:43;;;;;;;1999.90;999.90;;;;;;;11.70;89.04;95477.53;5135850;27;20492;-64
2023/10/27 04:38:10;;;;;;;1999.90;999.90;;;;;;;11.70;89.99;95474.06;5134394;27;20146;-63
2023/10/27 04:40:37;;;;;;;1999.90;999.90;;;;;;;11.74;90.27;95473.78;5135806;27;20043;-64
2023/10/27 04:43:05;;;;;;;1999.90;999.90;;;;;;;11.76;90.03;95471.09;5135865;27;20043;-63
2023/10/27 04:45:32;;;;;;;1999.90;999.90;;;;;;;11.77;90.07;95474.56;5135798;27;20070;-64
2023/10/27 04:47:59;;;;;;;1999.90;999.90;;;;;;;11.73;89.98;95482.59;5135634;27;20043;-63
2023/10/27 04:50:27;;;;;;;1999.90;999.90;;;;;;;11.76;89.63;95481.56;5135606;27;20047;-64
2023/10/27 04:52:55;;;;;;;1999.90;999.90;;;;;;;11.79;89.49;95488.38;5135518;27;20534;-64
2023/10/27 04:55:22;;;;;;;1999.90;999.90;;;;;;;11.78;89.42;95489.31;5135471;27;20445;-64
2023/10/27 04:57:49;;;;;;;1999.90;999.90;;;;;;;11.83;88.77;95485.50;5135327;27;20047;-63
2023/10/27 05:00:17;;;;;;;1999.90;999.90;;;;;;;11.83;88.28;95488.13;5135456;27;20495;-64
2023/10/27 05:02:44;;;;;;;1999.90;999.90;;;;;;;11.81;88.65;95487.38;5135190;27;20508;-64
2023/10/27 05:05:11;;;;;;;1999.90;999.90;;;;;;;11.85;88.02;95486.25;5135424;27;20126;-64
2023/10/27 05:07:40;;;;;;;1999.90;999.90;;;;;;;11.77;87.93;95492.91;5135373;27;20043;-64
2023/10/27 05:10:08;;;;;;;1999.90;999.90;;;;;;;11.73;88.50;95492.22;5135261;27;20043;-64
2023/10/27 05:12:36;;;;;;;1999.90;999.90;;;;;;;11.78;88.54;95495.44;5135224;27;20058;-62
2023/10/27 05:15:04;;;;;;;1999.90;999.90;;;;;;;11.82;88.37;95496.06;5135235;27;20054;-64
2023/10/27 05:17:34;;;;;;;1999.90;999.90;;;;;;;11.87;88.40;95494.84;5135036;27;20449;-64
2023/10/27 05:20:02;;;;;;;1999.90;999.90;;;;;;;11.93;88.59;95500.69;5135025;27;20476;-64
2023/10/27 05:22:30;;;;;;;1999.90;999.90;;;;;;;12.00;87.89;95497.59;5134940;27;20142;-64
2023/10/27 05:25:01;;;;;;;1999.90;999.90;;;;;;;12.09;87.67;95500.63;5134948;27;20076;-64
2023/10/27 05:27:27;;;;;;;;;;;;;;;12.18;87.16;95489.56;5135272;27;20126;-65
2023/10/27 05:29:55;;;;;;;1999.90;999.90;;;;;;;12.24;87.27;95498.84;5134792;27;19919;-64
2023/10/27 05:32:22;;;;;;;1999.90;999.90;;;;;;;12.51;88.17;95501.53;5134737;27;20039;-64
2023/10/27 05:34:49;;;;;;;1999.90;999.90;;;;;;;13.30;84.90;95497.47;5134728;27;20497;-61
2023/10/27 05:37:17;;;;;;;1999.90;999.90;;;;;;;13.79;81.76;95491.69;5131283;27;20105;-64
2023/10/27 05:39:44;;;;;;;1999.90;999.90;;;;;;;14.46;79.64;95493.25;5114040;28;20497;-64
2023/10/27 05:42:12;;;;;;;1999.90;999.90;;;;;;;15.75;73.45;95496.28;5114009;28;20054;-64
2023/10/27 05:44:41;;;;;;;1999.90;999.90;;;;;;;16.70;68.07;95498.78;5114104;28;20130;-65
2023/10/27 05:47:08;;;;;;;1999.90;999.90;;;;;;;17.59;64.28;95514.66;5113962;28;20044;-65
2023/10/27 05:49:36;;;;;;;1999.90;999.90;;;;;;;18.43;61.04;95513.00;5113559;28;20075;-63
2023/10/27 05:52:03;;;;;;;1999.90;999.90;;;;;;;18.99;58.62;95512.63;5113993;28;20534;-64
2023/10/27 05:54:31;;;;;;;1999.90;999.90;;;;;;;19.45;56.26;95515.66;5113823;28;20047;-65
2023/10/27 05:56:58;;;;;;;1999.90;999.90;;;;;;;19.58;55.37;95515.38;5113804;28;20054;-65
2023/10/27 05:59:26;;;;;;;1999.90;999.90;;;;;;;19.70;54.66;95519.56;5113796;28;20047;-64
2023/10/27 06:01:54;;;;;;;1999.90;999.90;;;;;;;20.04;54.01;95520.94;5113893;28;20051;-65
2023/10/27 06:04:21;;;;;;;1999.90;999.90;;;;;;;20.84;51.78;95530.31;5113804;28;20047;-64
2023/10/27 06:06:48;;;;;;;1999.90;999.90;;;;;;;21.57;49.92;95533.13;5113808;28;20055;-65
2023/10/27 06:09:15;;;;;;;1999.90;999.90;;;;;;;22.33;48.09;95534.56;5113605;28;20058;-64
2023/10/27 06:11:42;;;;;;;1999.90;999.90;;;;;;;23.10;46.32;95531.16;5113734;28;20047;-64
2023/10/27 06:14:09;;;;;;;1999.90;999.90;;;;;;;23.87;43.69;95530.31;5113522;28;20100;-65
2023/10/27 06:16:38;;;;;;;1999.90;999.90;;;;;;;24.58;42.70;95529.75;5113334;28;20506;-64
2023/10/27 06:19:05;;;;;;;1999.90;999.90;;;;;;;25.42;40.35;95535.63;5113540;28;20086;-64
2023/10/27 06:21:32;;;;;;;53.72;49.75;;;;;;;26.27;39.25;95546.41;5113512;28;20047;-64
2023/10/27 06:24:00;;;;;;;51.25;47.30;;;;;;;27.08;37.63;95544.09;5113534;28;20119;-65
2023/10/27 06:26:27;;;;;;;52.50;48.33;;;;;;;27.50;37.20;95547.06;5113412;28;20043;-63
2023/10/27 06:28:54;;;;;;;58.40;53.05;;;;;;;27.81;36.62;95545.97;5113220;28;20489;-63
2023/10/27 06:31:21;;;;;;;59.90;54.55;;;;;;;27.99;35.83;95539.34;5113473;28;20471;-66
2023/10/27 06:33:50;;;;;;;57.00;52.20;;;;;;;27.91;36.12;95540.28;5113250;28;20558;-65
2023/10/27 06:36:17;;;;;;;53.65;49.08;;;;;;;27.60;36.28;95538.72;5113436;28;20043;-63
2023/10/27 06:38:44;;;;;;;51.17;47.22;;;;;;;27.16;37.44;95530.59;5113300;28;20052;-62
2023/10/27 06:41:11;;;;;;;46.22;41.85;;;;;;;26.78;38.16;95517.28;5113254;28;20075;-65
2023/10/27 06:43:38;;;;;;;46.83;43.20;;;;;;;26.66;38.08;95509.69;5113386;28;20386;-64
2023/10/27 06:46:05;;;;;;;45.67;42.25;;;;;;;26.61;38.16;95517.47;5113173;28;20043;-65
2023/10/27 06:48:32;;;;;;;46.08;42.53;;;;;;;26.57;37.99;95503.59;5113105;28;20504;-65
2023/10/27 06:51:01;;;;;;;47.35;43.15;;;;;;;26.56;38.96;95509.13;5113242;28;20043;-63
2023/10/27 06:53:28;;;;;;;47.63;44.42;;;;;;;26.80;39.07;95504.50;5113136;28;20093;-64
2023/10/27 06:55:55;;;;;;;51.78;47.80;;;;;;;26.80;38.67;95501.81;5113187;28;20047;-64
2023/10/27 06:58:22;;;;;;;70.40;63.17;;;;;;;26.72;38.15;95510.78;5113115;28;20455;-63
2023/10/27 07:00:49;;;;;;;90.60;81.10;;;;;;;26.35;38.44;95514.22;5114496;28;20475;-64
2023/10/27 07:03:17;;;;;;;97.22;87.07;;;;;;;26.08;39.01;95508.41;5117200;28;20134;-65
2023/10/27 07:05:44;;;;;;;109.30;97.68;;;;;;;26.87;38.31;95505.41;5117152;28;20093;-65
2023/10/27 07:08:12;;;;;;;148.95;127.55;;;;;;;27.70;36.58;95512.41;5117044;28;20448;-63
2023/10/27 07:10:42;;;;;;;152.90;136.65;;;;;;;28.35;35.41;95514.22;5117054;28;20481;-64
2023/10/27 07:13:09;;;;;;;159.07;142.10;;;;;;;28.58;35.09;95512.28;5116941;28;20097;-63
2023/10/27 07:15:36;;;;;;;187.27;167.75;;;;;;;29.19;33.92;95513.44;5116864;28;20131;-63
2023/10/27 07:18:04;;;;;;;188.40;169.27;;;;;;;30.02;32.78;95513.44;5116711;28;20509;-65
2023/10/27 07:20:31;;;;;;;157.00;125.15;;;;;;;30.25;32.14;95518.44;5116906;28;20043;-61
2023/10/27 07:22:58;;;;;;;167.93;130.05;;;;;;;29.72;33.22;95511.97;5116772;28;20043;-63
2023/10/27 07:25:26;;;;;;;149.00;128.35;;;;;;;29.31;34.25;95500.22;5116712;28;20044;-65
2023/10/27 07:27:55;;;;;;;148.20;120.03;;;;;;;29.25;33.49;95504.56;5116665;28;20052;-65
2023/10/27 07:30:22;;;;;;;137.73;104.95;;;;;;;28.87;34.14;95505.81;5116651;28;20097;-65
2023/10/27 07:32:49;;;;;;;104.68;93.22;;;;;;;28.41;34.95;95499.16;5116840;28;20127;-62
2023/10/27 07:35:16;;;;;;;106.47;94.97;;;;;;;27.85;35.69;95498.06;5116490;28;20058;-63
2023/10/27 07:37:43;;;;;;;90.25;77.90;;;;;;;27.18;36.97;95488.28;5123232;27;20087;-63
2023/10/27 07:40:11;;;;;;;91.97;75.43;;;;;;;26.73;37.97;95491.03;5137038;27;20194;-63
2023/10/27 07:42:40;;;;;;;74.80;59.95;;;;;;;26.27;38.91;95478.59;5136920;27;20076;-62
2023/10/27 07:45:08;;;;;;;62.15;51.67;;;;;;;25.86;39.17;95473.41;5136959;27;20130;-62
2023/10/27 07:47:35;;;;;;;56.28;48.63;;;;;;;25.59;40.17;95466.78;5136824;27;20043;-63
2023/10/27 07:50:02;;;;;;;53.42;46.97;;;;;;;25.41;40.27;95467.91;5136860;27;20047;-64
2023/10/27 07:52:29;;;;;;;51.50;45.90;;;;;;;25.16;40.66;95475.25;5136789;27;20416;-64
2023/10/27 07:54:56;;;;;;;56.25;44.38;;;;;;;24.91;41.27;95475.38;5136617;27;20043;-63
2023/10/27 07:57:23;;;;;;;48.65;43.50;;;;;;;24.74;41.65;95459.38;5136852;27;20040;-64
2023/10/27 07:59:52;;;;;;;46.47;41.55;;;;;;;25.09;40.87;95464.41;5136757;27;20066;-64
2023/10/27 08:02:19;;;;;;;52.47;46.10;;;;;;;25.38;40.76;95459.38;5136739;27;20130;-64
2023/10/27 08:04:47;;;;;;;63.60;51.75;;;;;;;25.71;40.22;95462.66;5136543;27;20130;-64
2023/10/27 08:07:14;;;;;;;57.90;48.80;;;;;;;25.81;39.81;95469.63;5136418;27;20051;-63
2023/10/27 08:09:41;;;;;;;65.22;51.95;;;;;;;25.74;40.13;95451.59;5136395;27;20519;-65
2023/10/27 08:12:09;;;;;;;52.38;45.75;;;;;;;25.76;40.10;95445.25;5136231;27;20047;-62
2023/10/27 08:14:36;;;;;;;42.13;35.53;;;;;;;25.63;40.22;95448.53;5136210;27;20051;-62
2023/10/27 08:17:05;;;;;;;40.95;34.45;;;;;;;25.36;40.69;95449.72;5136424;27;20058;-62
2023/10/27 08:19:32;;;;;;;40.38;32.45;;;;;;;25.21;41.41;95449.63;5136240;27;20100;-65
2023/10/27 08:21:59;;;;;;;32.75;29.63;;;;;;;25.03;41.23;95438.38;5136292;27;20078;-64
2023/10/27 08:24:26;;;;;;;33.38;30.13;;;;;;;24.80;42.01;95421.25;5127839;27;20044;-62
2023/10/27 08:26:53;;;;;;;37.28;32.33;;;;;;;24.51;42.57;95422.72;5136263;27;20051;-64
2023/10/27 08:29:20;;;;;;;37.15;33.15;;;;;;;24.31;42.76;95431.16;5136079;27;20050;-64
2023/10/27 08:31:48;;;;;;;42.38;37.90;;;;;;;23.97;43.12;95430.38;5136017;27;20103;-63
2023/10/27 08:34:16;;;;;;;46.78;42.30;;;;;;;23.73;44.21;95428.56;5135909;27;20055;-64
2023/10/27 08:36:45;;;;;;;41.88;38.42;;;;;;;23.58;44.28;95431.91;5136034;27;20092;-62
2023/10/27 08:39:12;;;;;;;41.03;37.55;;;;;;;23.55;45.05;95445.59;5135745;27;20047;-63
2023/10/27 08:41:40;;;;;;;40.00;36.17;;;;;;;23.51;45.17;95444.22;5135844;27;20076;-64
2023/10/27 08:44:08;;;;;;;40.67;35.17;;;;;;;23.44;44.78;95441.41;5135805;27;20488;-64
2023/10/27 08:46:35;;;;;;;38.97;34.92;;;;;;;23.46;45.66;95435.91;5135677;27;20047;-62
2023/10/27 08:49:03;;;;;;;36.05;33.03;;;;;;;23.70;45.86;95439.56;5135755;27;20043;-62
2023/10/27 08:51:33;;;;;;;40.83;36.97;;;;;;;23.93;45.08;95447.72;5135808;27;20100;-62
2023/10/27 08:54:01;;;;;;;40.50;36.63;;;;;;;23.99;44.36;95459.56;5135537;27;20545;-64
2023/10/27 08:56:28;;;;;;;44.13;40.53;;;;;;;24.00;43.92;95455.03;5135489;27;20404;-64
2023/10/27 08:58:55;;;;;;;42.08;38.22;;;;;;;24.04;44.38;95446.53;5135551;27;20047;-62
2023/10/27 09:01:22;;;;;;;43.65;39.60;;;;;;;24.17;43.73;95453.22;5135408;27;20046;-62
2023/10/27 09:04:09;;;;;;;41.97;38.22;;;;;;;24.45;42.35;95461.66;5135540;27;20108;-64
2023/10/27 09:06:39;;;;;;;43.50;39.80;;;;;;;24.51;41.60;95453.94;5135374;27;20043;-65
2023/10/27 09:09:09;;;;;;;41.83;38.53;;;;;;;24.52;41.35;95459.13;5135263;27;20047;-64
2023/10/27 09:11:41;;;;;;;42.55;39.00;;;;;;;24.64;41.59;95453.41;5135275;27;20434;-62
2023/10/27 09:14:19;;;;;;;38.72;35.70;;;;;;;24.80;40.72;95441.81;5135101;27;20047;-62
2023/10/27 09:16:46;;;;;;;40.20;36.92;;;;;;;24.91;39.78;95449.47;5135168;27;20416;-63
2023/10/27 09:19:21;;;;;;;38.05;34.88;;;;;;;25.03;40.35;95452.59;5135140;27;20550;-63
2023/10/27 09:21:50;;;;;;;36.50;33.67;;;;;;;25.13;40.18;95436.28;5134965;27;20039;-63
2023/10/27 09:24:24;;;;;;;35.75;32.70;;;;;;;25.22;39.77;95418.34;5134444;27;20047;-63
2023/10/27 09:26:52;;;;;;;33.97;31.23;;;;;;;25.18;38.49;95415.22;5135047;27;20043;-64
2023/10/27 09:29:19;;;;;;;36.78;33.38;;;;;;;25.17;38.72;95415.38;5134896;27;20049;-65
2023/10/27 09:31:46;;;;;;;34.33;31.40;;;;;;;25.18;39.35;95409.03;5134732;27;20488;-64
2023/10/27 09:34:20;;;;;;;33.92;31.02;;;;;;;25.17;38.97;95396.66;5134788;27;20120;-64
2023/10/27 09:36:49;;;;;;;33.30;30.80;;;;;;;25.09;39.88;95393.03;5134861;27;20053;-63
2023/10/27 09:39:18;;;;;;;37.30;33.97;;;;;;;24.97;40.50;95391.78;5134470;27;20493;-63
2023/10/27 09:41:56;;;;;;;35.25;32.40;;;;;;;24.88;40.58;95393.66;5134718;27;20478;-62
2023/10/27 09:44:30;;;;;;;35.75;32.08;;;;;;;24.77;41.90;95386.84;5134579;27;20047;-63
2023/10/27 09:47:01;;;;;;;37.60;34.53;;;;;;;24.82;41.87;95383.66;5134661;27;20055;-63
2023/10/27 09:49:33;;;;;;;38.08;34.58;;;;;;;24.65;42.22;95385.59;5134608;27;20084;-63
2023/10/27 09:52:01;;;;;;;38.80;35.17;;;;;;;24.68;42.21;95388.72;5134586;27;20492;-63
2023/10/27 09:54:32;;;;;;;40.80;36.60;;;;;;;24.73;40.98;95383.69;5134362;27;20136;-63
2023/10/27 09:57:04;;;;;;;39.63;35.10;;;;;;;24.69;41.97;95384.22;5134411;27;20572;-62
2023/10/27 09:59:32;;;;;;;38.88;35.13;;;;;;;24.69;42.96;95381.56;5134389;27;20126;-64
2023/10/27 10:02:04;;;;;;;41.25;37.20;;;;;;;24.70;42.15;95383.22;5134418;27;20078;-64
2023/10/27 10:04:56;;;;;;;39.28;35.70;;;;;;;24.75;43.02;95372.84;5134288;27;20070;-62
2023/10/27 10:07:34;;;;;;;40.78;36.97;;;;;;;24.79;42.33;95367.94;5134277;27;20428;-63
2023/10/27 10:10:25;;;;;;;41.78;37.42;;;;;;;24.72;43.10;95357.97;5134242;27;20058;-63
2023/10/27 10:13:07;;;;;;;40.55;37.22;;;;;;;24.85;43.21;95357.41;5134279;27;20043;-63
2023/10/27 10:15:35;;;;;;;40.05;36.45;;;;;;;24.93;42.45;95350.38;5134132;27;20072;-63
2023/10/27 10:18:03;;;;;;;37.75;34.88;;;;;;;25.07;42.47;95346.09;5134097;27;20100;-62
2023/10/27 10:20:59;;;;;;;39.05;35.00;;;;;;;25.13;41.48;95344.53;5134051;27;20051;-63
2023/10/27 10:24:08;;;;;;;36.75;33.58;;;;;;;25.05;41.07;95346.28;5134031;27;20484;-62
2023/10/27 10:27:06;;;;;;;36.55;33.25;;;;;;;24.66;41.00;95339.13;5134006;27;20044;-63
2023/10/27 10:29:34;;;;;;;33.67;30.38;;;;;;;24.56;41.15;95344.72;5133995;28;20515;-64
2023/10/27 10:32:32;;;;;;;36.63;33.22;;;;;;;24.48;41.68;95343.72;5133963;28;20039;-63
2023/10/27 10:35:22;;;;;;;40.47;37.15;;;;;;;24.35;41.83;95338.16;5135558;27;20047;-63
2023/10/27 10:37:51;;;;;;;43.00;39.38;;;;;;;24.17;42.51;95325.84;5138028;27;20070;-63
2023/10/27 10:40:27;;;;;;;41.17;37.75;;;;;;;24.07;43.02;95314.50;5138145;27;20043;-64
2023/10/27 10:43:23;;;;;;;44.90;40.97;;;;;;;24.04;42.88;95305.00;5138105;27;20096;-62
2023/10/27 10:45:51;;;;;;;41.28;37.22;;;;;;;24.02;43.38;95282.16;5138062;27;20492;-64
2023/10/27 10:48:19;;;;;;;45.00;40.78;;;;;;;24.06;43.03;95297.66;5137936;27;20088;-65
2023/10/27 10:50:46;;;;;;;42.08;38.03;;;;;;;24.03;42.96;95292.69;5138091;27;20051;-64
2023/10/27 10:53:15;;;;;;;43.13;39.30;;;;;;;24.04;42.73;95286.31;5138026;27;20047;-64
2023/10/27 10:55:45;;;;;;;41.33;37.85;;;;;;;23.95;42.99;95274.84;5138007;27;20051;-64
2023/10/27 10:58:12;;;;;;;41.42;37.65;;;;;;;23.92;42.70;95283.19;5138026;27;20082;-63
2023/10/27 11:00:40;;;;;;;38.22;35.10;;;;;;;23.92;40.94;95274.34;5137940;27;20126;-63
2023/10/27 11:03:08;;;;;;;37.63;34.45;;;;;;;23.83;41.89;95277.06;5137744;27;20043;-63
2023/10/27 11:05:36;;;;;;;36.67;33.17;;;;;;;23.89;41.65;95282.69;5137706;27;20043;-65
2023/10/27 11:08:04;;;;;;;36.90;32.83;;;;;;;23.84;41.08;95284.06;5137591;27;20587;-63
2023/10/27 11:10:32;;;;;;;36.05;32.63;;;;;;;23.94;41.45;95291.88;5137509;27;20503;-63